createdAt,value
2023-02-15T00:01:54.034Z,33.87
2023-02-15T00:04:23.812Z,34.50
2023-02-15T00:06:50.960Z,40.73
2023-02-15T00:09:17.921Z,31.10
2023-02-15T00:11:50.763Z,37.70
2023-02-15T00:14:23.313Z,26.17
2023-02-15T00:16:51.992Z,33.87
2023-02-15T00:19:20.758Z,28.27
2023-02-15T00:21:48.589Z,29.40
2023-02-15T00:24:17.212Z,41.37
2023-02-15T00:26:44.953Z,36.13
2023-02-15T00:29:13.040Z,39.27
2023-02-15T00:31:39.872Z,28.07
2023-02-15T00:34:11.630Z,30.20
2023-02-15T00:36:38.556Z,29.63
2023-02-15T00:39:05.877Z,30.20
2023-02-15T00:41:33.826Z,34.10
2023-02-15T00:44:01.042Z,34.20
2023-02-15T00:46:28.030Z,35.47
2023-02-15T00:48:54.853Z,32.27
2023-02-15T00:51:21.759Z,41.53
2023-02-15T00:53:49.380Z,37.87
2023-02-15T00:56:16.386Z,41.07
2023-02-15T00:58:43.589Z,31.00
2023-02-15T01:01:16.023Z,32.33
2023-02-15T01:03:43.088Z,32.00
2023-02-15T01:06:10.758Z,32.80
2023-02-15T01:08:37.944Z,33.73
2023-02-15T01:11:07.158Z,32.83
2023-02-15T01:13:34.645Z,30.57
2023-02-15T01:16:02.456Z,31.30
2023-02-15T01:18:29.420Z,32.33
2023-02-15T01:20:56.354Z,31.17
2023-02-15T01:23:23.072Z,31.00
2023-02-15T01:25:49.836Z,41.57
2023-02-15T01:28:16.688Z,31.70
2023-02-15T01:30:43.502Z,29.10
2023-02-15T01:33:18.458Z,39.77
2023-02-15T01:35:47.092Z,37.70
2023-02-15T01:38:15.161Z,33.77
2023-02-15T01:40:42.077Z,32.50
2023-02-15T01:43:12.153Z,40.87
2023-02-15T01:45:40.080Z,40.13
2023-02-15T01:48:28.928Z,34.10
2023-02-15T01:51:03.009Z,35.23
2023-02-15T01:53:41.461Z,32.30
2023-02-15T01:56:18.255Z,33.20
2023-02-15T01:58:46.514Z,36.23
2023-02-15T02:01:13.416Z,33.33
2023-02-15T02:03:49.834Z,37.47
2023-02-15T02:06:16.993Z,36.27
2023-02-15T02:08:44.508Z,40.77
2023-02-15T02:11:12.891Z,40.17
2023-02-15T02:13:41.813Z,43.27
2023-02-15T02:16:08.575Z,38.03
2023-02-15T02:18:41.179Z,45.40
2023-02-15T02:21:19.913Z,35.53
2023-02-15T02:24:02.730Z,38.47
2023-02-15T02:26:46.083Z,54.00
2023-02-15T02:29:26.082Z,45.17
2023-02-15T02:32:23.460Z,44.80
2023-02-15T02:34:56.352Z,51.77
2023-02-15T02:37:38.426Z,54.93
2023-02-15T02:40:31.653Z,55.37
2023-02-15T02:43:22.081Z,41.70
2023-02-15T02:45:58.846Z,42.00
2023-02-15T02:48:33.146Z,38.00
2023-02-15T02:51:00.035Z,37.63
2023-02-15T02:53:29.447Z,37.40
2023-02-15T02:56:18.940Z,36.27
2023-02-15T02:58:51.814Z,33.63
2023-02-15T03:01:28.370Z,39.37
2023-02-15T03:04:02.207Z,42.50
2023-02-15T03:06:39.929Z,31.00
2023-02-15T03:09:24.325Z,33.37
2023-02-15T03:11:51.612Z,38.27
2023-02-15T03:14:19.871Z,37.63
2023-02-15T03:16:49.569Z,33.27
2023-02-15T03:19:27.830Z,33.80
2023-02-15T03:22:13.976Z,36.73
2023-02-15T03:24:52.722Z,32.47
2023-02-15T03:27:23.290Z,36.07
2023-02-15T03:29:54.436Z,39.33
2023-02-15T03:32:21.942Z,32.90
2023-02-15T03:34:48.781Z,29.63
2023-02-15T03:37:38.859Z,34.67
2023-02-15T03:40:53.349Z,33.73
2023-02-15T03:43:31.592Z,31.70
2023-02-15T03:46:06.807Z,40.63
2023-02-15T03:48:42.127Z,30.27
2023-02-15T03:51:31.942Z,32.63
2023-02-15T03:53:59.994Z,34.67
2023-02-15T03:56:27.243Z,32.50
2023-02-15T03:59:12.798Z,29.53
2023-02-15T04:02:01.162Z,30.87
2023-02-15T04:04:31.868Z,33.20
2023-02-15T04:06:58.813Z,32.73
2023-02-15T04:09:43.986Z,30.93
2023-02-15T04:12:10.850Z,32.10
2023-02-15T04:14:56.333Z,36.70
2023-02-15T04:17:23.083Z,33.90
2023-02-15T04:20:08.269Z,40.40
2023-02-15T04:22:53.677Z,33.77
2023-02-15T04:25:21.025Z,32.90
2023-02-15T04:27:52.911Z,31.87
2023-02-15T04:30:22.391Z,36.93
2023-02-15T04:32:49.261Z,30.70
2023-02-15T04:35:16.619Z,32.03
2023-02-15T04:37:44.235Z,33.57
2023-02-15T04:40:13.983Z,34.83
2023-02-15T04:42:40.964Z,29.67
2023-02-15T04:45:07.993Z,34.50
2023-02-15T04:47:35.123Z,31.70
2023-02-15T04:50:01.970Z,34.80
2023-02-15T04:52:29.067Z,34.70
2023-02-15T04:54:55.775Z,32.50
2023-02-15T04:57:22.480Z,32.40
2023-02-15T04:59:49.226Z,34.13
2023-02-15T05:02:15.981Z,35.87
2023-02-15T05:04:42.749Z,33.80
2023-02-15T05:07:09.476Z,32.47
2023-02-15T05:09:36.201Z,33.77
2023-02-15T05:12:02.952Z,35.20
2023-02-15T05:14:29.682Z,33.93
2023-02-15T05:16:56.430Z,30.47
2023-02-15T05:19:25.499Z,35.03
2023-02-15T05:21:52.342Z,29.27
2023-02-15T05:24:37.776Z,36.10
2023-02-15T05:27:23.486Z,36.37
2023-02-15T05:29:50.255Z,35.23
2023-02-15T05:32:17.031Z,31.33
2023-02-15T05:34:43.855Z,34.53
2023-02-15T05:37:10.687Z,37.03
2023-02-15T05:39:37.380Z,34.80
2023-02-15T05:42:04.390Z,37.40
2023-02-15T05:44:31.283Z,33.70
2023-02-15T05:46:58.022Z,35.07
2023-02-15T05:49:24.774Z,34.13
2023-02-15T05:51:51.494Z,40.60
2023-02-15T05:54:18.245Z,33.93
2023-02-15T05:56:44.992Z,33.70
2023-02-15T05:59:12.002Z,36.33
2023-02-15T06:01:38.722Z,38.10
2023-02-15T06:04:05.534Z,34.37
2023-02-15T06:06:32.265Z,35.63
2023-02-15T06:08:59.120Z,38.17
2023-02-15T06:11:25.925Z,33.33
2023-02-15T06:13:52.644Z,36.43
2023-02-15T06:16:19.430Z,38.83
2023-02-15T06:18:46.314Z,31.13
2023-02-15T06:21:13.157Z,32.27
2023-02-15T06:23:39.916Z,29.90
2023-02-15T06:26:06.682Z,34.13
2023-02-15T06:28:33.495Z,32.20
2023-02-15T06:31:00.336Z,30.87
2023-02-15T06:33:27.417Z,32.17
2023-02-15T06:35:54.146Z,37.83
2023-02-15T06:38:21.297Z,37.27
2023-02-15T06:40:48.110Z,33.30
2023-02-15T06:43:14.944Z,32.53
2023-02-15T06:45:42.670Z,33.90
2023-02-15T06:48:09.441Z,33.53
2023-02-15T06:50:36.198Z,32.40
2023-02-15T06:53:02.972Z,33.73
2023-02-15T06:55:29.831Z,33.83
2023-02-15T06:57:56.604Z,31.47
2023-02-15T07:00:24.183Z,33.20
2023-02-15T07:02:58.862Z,34.00
2023-02-15T07:05:31.924Z,34.53
2023-02-15T07:07:59.866Z,30.50
2023-02-15T07:10:27.189Z,35.97
2023-02-15T07:12:54.389Z,33.17
2023-02-15T07:15:21.997Z,36.10
2023-02-15T07:17:49.460Z,33.30
2023-02-15T07:20:19.241Z,33.70
2023-02-15T07:22:46.575Z,30.90
2023-02-15T07:25:13.983Z,31.77
2023-02-15T07:27:41.384Z,32.17
2023-02-15T07:30:10.484Z,31.87
2023-02-15T07:32:37.503Z,31.80
2023-02-15T07:35:11.600Z,35.50
2023-02-15T07:37:38.448Z,31.57
2023-02-15T07:40:05.981Z,27.77
2023-02-15T07:42:32.681Z,35.40
2023-02-15T07:44:59.392Z,31.70
2023-02-15T07:47:27.659Z,32.93
2023-02-15T07:49:54.661Z,30.73
2023-02-15T07:52:21.648Z,31.10
2023-02-15T07:54:48.391Z,31.87
2023-02-15T07:57:15.139Z,31.27
2023-02-15T07:59:41.866Z,30.10
2023-02-15T08:02:11.860Z,30.53
2023-02-15T08:04:38.558Z,29.83
2023-02-15T08:07:05.464Z,30.97
2023-02-15T08:09:32.146Z,30.13
2023-02-15T08:11:58.856Z,28.23
2023-02-15T08:14:25.763Z,27.07
2023-02-15T08:16:56.009Z,26.13
2023-02-15T08:19:23.987Z,30.43
2023-02-15T08:22:01.829Z,28.40
2023-02-15T08:24:30.820Z,30.87
2023-02-15T08:26:58.196Z,28.33
2023-02-15T08:29:27.993Z,27.33
2023-02-15T08:31:59.792Z,25.80
2023-02-15T08:34:26.954Z,27.43
2023-02-15T08:36:53.736Z,33.17
2023-02-15T08:39:20.718Z,30.93
2023-02-15T08:41:48.605Z,32.07
2023-02-15T08:44:17.612Z,29.80
2023-02-15T08:46:46.447Z,28.57
2023-02-15T08:49:21.463Z,28.00
2023-02-15T08:51:49.186Z,29.00
2023-02-15T08:54:22.300Z,26.73
2023-02-15T08:56:49.346Z,24.30
2023-02-15T08:59:18.591Z,22.90
2023-02-15T09:01:46.245Z,31.63
2023-02-15T09:04:14.118Z,27.93
2023-02-15T09:06:42.869Z,23.17
2023-02-15T09:09:10.157Z,24.90
2023-02-15T09:11:42.712Z,25.03
2023-02-15T09:14:14.467Z,25.80
2023-02-15T09:16:42.759Z,25.03
2023-02-15T09:19:09.664Z,23.37
2023-02-15T09:21:38.417Z,24.60
2023-02-15T09:24:07.561Z,25.70
2023-02-15T09:26:38.288Z,23.10
2023-02-15T09:29:05.623Z,23.93
2023-02-15T09:31:34.947Z,24.90
2023-02-15T09:34:02.645Z,26.57
2023-02-15T09:36:35.499Z,27.67
2023-02-15T09:39:24.536Z,24.73
2023-02-15T09:42:00.132Z,22.97
2023-02-15T09:45:04.741Z,24.03
2023-02-15T09:47:55.620Z,25.20
2023-02-15T09:50:32.664Z,25.83
2023-02-15T09:53:35.312Z,26.67
2023-02-15T09:56:26.091Z,25.83
2023-02-15T09:59:18.977Z,28.07
2023-02-15T10:01:56.880Z,29.70
2023-02-15T10:04:29.991Z,24.13
2023-02-15T10:07:09.484Z,22.57
2023-02-15T10:09:42.162Z,26.43
2023-02-15T10:12:37.244Z,28.73
2023-02-15T10:15:22.302Z,30.30
2023-02-15T10:17:54.532Z,27.07
2023-02-15T10:20:27.160Z,29.93
2023-02-15T10:23:03.219Z,25.27
2023-02-15T10:25:57.872Z,27.20
2023-02-15T10:28:28.919Z,28.53
2023-02-15T10:31:37.093Z,29.33
2023-02-15T10:34:18.878Z,29.50
2023-02-15T10:37:07.306Z,29.83
2023-02-15T10:39:43.532Z,28.73
2023-02-15T10:42:24.246Z,30.67
2023-02-15T10:45:30.566Z,29.97
2023-02-15T10:48:05.930Z,27.40
2023-02-15T10:50:44.339Z,27.57
2023-02-15T10:53:14.177Z,29.70
2023-02-15T10:55:47.095Z,25.17
2023-02-15T10:58:34.486Z,30.73
2023-02-15T11:01:14.150Z,25.47
2023-02-15T11:03:40.870Z,26.17
2023-02-15T11:06:14.311Z,28.50
2023-02-15T11:08:46.110Z,30.93
2023-02-15T11:11:21.158Z,27.03
2023-02-15T11:13:53.826Z,27.63
2023-02-15T11:16:35.531Z,28.00
2023-02-15T11:19:18.154Z,25.93
2023-02-15T11:21:50.933Z,26.43
2023-02-15T11:24:21.118Z,25.03
2023-02-15T11:27:00.730Z,28.97
2023-02-15T11:29:38.522Z,28.53
2023-02-15T11:32:20.085Z,29.77
2023-02-15T11:35:13.000Z,23.50
2023-02-15T11:37:54.565Z,23.77
2023-02-15T11:40:35.286Z,25.23
2023-02-15T11:43:12.964Z,26.80
2023-02-15T11:45:42.800Z,26.37
2023-02-15T11:48:12.453Z,26.47
2023-02-15T11:50:39.934Z,27.50
2023-02-15T11:53:14.561Z,25.97
2023-02-15T11:55:44.728Z,26.63
2023-02-15T11:58:41.742Z,27.23
2023-02-15T12:01:34.647Z,24.40
2023-02-15T12:04:21.401Z,25.80
2023-02-15T12:07:12.715Z,24.57
2023-02-15T12:09:48.278Z,26.33
2023-02-15T12:12:25.815Z,29.20
2023-02-15T12:14:57.980Z,28.07
2023-02-15T12:17:28.425Z,27.23
2023-02-15T12:19:58.909Z,28.40
2023-02-15T12:22:36.205Z,27.80
2023-02-15T12:25:21.227Z,28.20
2023-02-15T12:27:49.090Z,28.33
2023-02-15T12:30:37.614Z,27.43
2023-02-15T12:33:23.459Z,25.07
2023-02-15T12:36:02.385Z,27.17
2023-02-15T12:38:30.531Z,26.80
2023-02-15T12:41:06.540Z,27.87
2023-02-15T12:43:39.070Z,27.90
2023-02-15T12:46:22.213Z,26.77
2023-02-15T12:49:20.392Z,26.97
2023-02-15T12:51:51.794Z,27.93
2023-02-15T12:54:44.911Z,27.07
2023-02-15T12:57:22.231Z,29.17
2023-02-15T13:00:01.914Z,32.87
2023-02-15T13:02:34.545Z,28.63
2023-02-15T13:05:19.708Z,33.43
2023-02-15T13:07:51.046Z,28.33
2023-02-15T13:10:25.573Z,29.60
2023-02-15T13:12:55.196Z,29.77
2023-02-15T13:15:50.715Z,29.20
2023-02-15T13:18:35.064Z,30.83
2023-02-15T13:21:24.544Z,28.53
2023-02-15T13:24:23.345Z,33.00
2023-02-15T13:26:50.661Z,28.77
2023-02-15T13:29:39.409Z,29.63
2023-02-15T13:32:13.673Z,28.07
2023-02-15T13:34:44.277Z,30.60
2023-02-15T13:37:38.322Z,30.63
2023-02-15T13:40:24.858Z,28.60
2023-02-15T13:43:01.117Z,29.77
2023-02-15T13:45:39.670Z,29.13
2023-02-15T13:48:45.017Z,31.67
2023-02-15T13:51:52.940Z,32.17
2023-02-15T13:54:41.747Z,30.20
2023-02-15T13:57:20.401Z,32.93
2023-02-15T13:59:57.369Z,33.83
2023-02-15T14:02:46.102Z,36.50
2023-02-15T14:05:22.645Z,33.83
2023-02-15T14:07:59.231Z,31.70
2023-02-15T14:10:46.657Z,34.63
2023-02-15T14:13:16.195Z,33.10
2023-02-15T14:15:50.074Z,29.60
2023-02-15T14:18:41.932Z,31.00
2023-02-15T14:21:27.715Z,37.23
2023-02-15T14:24:36.199Z,34.33
2023-02-15T14:27:13.406Z,34.90
2023-02-15T14:29:54.913Z,36.27
2023-02-15T14:32:41.053Z,33.53
2023-02-15T14:35:18.363Z,36.17
2023-02-15T14:38:11.817Z,37.03
2023-02-15T14:41:16.700Z,33.33
2023-02-15T14:44:25.788Z,38.80
2023-02-15T14:47:19.480Z,36.13
2023-02-15T14:49:46.332Z,34.57
2023-02-15T14:52:13.961Z,36.03
2023-02-15T14:54:40.642Z,31.50
2023-02-15T14:57:07.539Z,35.20
2023-02-15T14:59:59.444Z,35.90
2023-02-15T15:02:32.087Z,37.90
2023-02-15T15:05:21.733Z,35.10
2023-02-15T15:08:00.766Z,39.40
2023-02-15T15:10:27.521Z,40.60
2023-02-15T15:12:58.704Z,39.23
2023-02-15T15:15:28.589Z,39.20
2023-02-15T15:17:55.474Z,37.47
2023-02-15T15:20:48.596Z,38.00
2023-02-15T15:23:16.404Z,37.60
2023-02-15T15:25:55.307Z,41.43
2023-02-15T15:28:34.317Z,41.77
2023-02-15T15:31:09.468Z,40.37
2023-02-15T15:33:42.223Z,40.47
2023-02-15T15:36:32.083Z,36.23
2023-02-15T15:39:10.545Z,42.50
2023-02-15T15:41:58.455Z,38.07
2023-02-15T15:44:53.006Z,43.10
2023-02-15T15:48:05.178Z,41.33
2023-02-15T15:50:34.378Z,43.43
2023-02-15T15:53:03.537Z,41.90
2023-02-15T15:55:32.886Z,43.33
2023-02-15T15:58:07.145Z,44.00
2023-02-15T16:01:00.315Z,40.47
2023-02-15T16:03:29.500Z,44.33
2023-02-15T16:06:01.105Z,37.27
2023-02-15T16:08:34.254Z,45.50
2023-02-15T16:11:17.985Z,40.37
2023-02-15T16:13:45.240Z,44.30
2023-02-15T16:16:14.845Z,36.60
2023-02-15T16:18:43.331Z,44.87
2023-02-15T16:21:20.819Z,41.77
2023-02-15T16:24:03.901Z,43.23
2023-02-15T16:26:49.846Z,49.40
2023-02-15T16:29:18.733Z,51.03
2023-02-15T16:32:06.873Z,52.10
2023-02-15T16:34:34.326Z,46.10
2023-02-15T16:37:18.415Z,48.03
2023-02-15T16:39:48.970Z,48.10
2023-02-15T16:42:17.676Z,50.67
2023-02-15T16:44:46.448Z,59.63
2023-02-15T16:47:39.957Z,45.03
2023-02-15T16:50:11.719Z,43.83
2023-02-15T16:52:38.512Z,46.57
2023-02-15T16:55:07.431Z,46.10
2023-02-15T16:57:38.292Z,46.37
2023-02-15T17:00:17.819Z,44.20
2023-02-15T17:03:01.503Z,51.00
2023-02-15T17:05:41.297Z,59.90
2023-02-15T17:08:15.561Z,55.87
2023-02-15T17:10:45.946Z,51.40
2023-02-15T17:13:17.863Z,48.57
2023-02-15T17:15:58.052Z,47.30
2023-02-15T17:18:25.706Z,51.60
2023-02-15T17:21:00.232Z,48.30
2023-02-15T17:23:30.026Z,45.70
2023-02-15T17:25:57.773Z,46.03
2023-02-15T17:28:32.346Z,46.50
2023-02-15T17:30:59.879Z,49.73
2023-02-15T17:33:35.815Z,48.20
2023-02-15T17:36:07.431Z,46.40
2023-02-15T17:38:34.284Z,48.43
2023-02-15T17:41:01.356Z,50.57
2023-02-15T17:43:28.450Z,47.33
2023-02-15T17:45:56.403Z,48.40
2023-02-15T17:48:31.670Z,57.80
2023-02-15T17:51:01.205Z,47.07
2023-02-15T17:53:28.510Z,51.37
2023-02-15T17:55:55.722Z,49.47
2023-02-15T17:58:23.008Z,44.73
2023-02-15T18:01:21.006Z,46.43
2023-02-15T18:04:09.064Z,45.60
2023-02-15T18:06:56.938Z,49.58
2023-02-15T18:09:43.064Z,45.00
2023-02-15T18:12:20.965Z,47.00
2023-02-15T18:14:47.835Z,50.50
2023-02-15T18:17:16.322Z,45.97
2023-02-15T18:19:45.517Z,52.73
2023-02-15T18:22:14.518Z,47.50
2023-02-15T18:24:41.278Z,42.77
2023-02-15T18:27:08.068Z,51.00
2023-02-15T18:29:34.799Z,56.23
2023-02-15T18:32:02.054Z,54.03
2023-02-15T18:34:33.298Z,47.37
2023-02-15T18:37:03.033Z,49.70
2023-02-15T18:39:46.786Z,56.80
2023-02-15T18:42:27.871Z,56.67
2023-02-15T18:45:00.624Z,68.53
2023-02-15T18:47:27.504Z,60.23
2023-02-15T18:49:55.388Z,55.10
2023-02-15T18:52:24.832Z,50.57
2023-02-15T18:54:58.435Z,53.73
2023-02-15T18:57:25.444Z,60.23
2023-02-15T18:59:52.167Z,53.83
2023-02-15T19:02:19.719Z,50.33
2023-02-15T19:04:47.030Z,50.17
2023-02-15T19:07:26.839Z,53.50
2023-02-15T19:09:56.843Z,54.07
2023-02-15T19:12:23.857Z,56.97
2023-02-15T19:14:53.587Z,52.47
2023-02-15T19:17:22.230Z,125.00
2023-02-15T19:19:50.302Z,194.93
2023-02-15T19:22:22.735Z,56.30
2023-02-15T19:24:50.936Z,71.47
2023-02-15T19:27:28.381Z,57.97
2023-02-15T19:29:56.879Z,194.70
2023-02-15T19:32:23.713Z,67.43
2023-02-15T19:34:50.550Z,57.77
2023-02-15T19:37:42.309Z,58.87
2023-02-15T19:40:18.919Z,89.27
2023-02-15T19:42:45.679Z,72.83
2023-02-15T19:45:20.777Z,53.97
2023-02-15T19:47:48.291Z,156.20
2023-02-15T19:50:20.253Z,54.33
2023-02-15T19:52:48.148Z,118.60
2023-02-15T19:55:29.497Z,184.00
2023-02-15T19:57:58.347Z,54.73
2023-02-15T20:00:33.788Z,83.47
2023-02-15T20:03:01.181Z,50.97
2023-02-15T20:05:30.341Z,52.83
2023-02-15T20:07:58.321Z,51.90
2023-02-15T20:10:28.821Z,53.60
2023-02-15T20:12:56.223Z,68.60
2023-02-15T20:15:29.280Z,115.10
2023-02-15T20:17:57.492Z,170.37
2023-02-15T20:20:29.203Z,54.67
2023-02-15T20:22:56.158Z,47.83
2023-02-15T20:25:28.627Z,60.13
2023-02-15T20:27:58.045Z,59.03
2023-02-15T20:30:29.979Z,50.67
2023-02-15T20:32:57.220Z,74.20
2023-02-15T20:35:26.369Z,86.93
2023-02-15T20:37:55.836Z,78.10
2023-02-15T20:40:28.727Z,46.80
2023-02-15T20:42:55.905Z,73.30
2023-02-15T20:45:28.456Z,45.97
2023-02-15T20:47:55.563Z,60.97
2023-02-15T20:50:31.355Z,56.43
2023-02-15T20:53:00.323Z,51.30
2023-02-15T20:55:30.249Z,62.27
2023-02-15T20:57:58.240Z,52.93
2023-02-15T21:00:27.567Z,61.57
2023-02-15T21:02:57.492Z,50.10
2023-02-15T21:05:33.337Z,48.77
2023-02-15T21:08:00.616Z,54.40
2023-02-15T21:10:30.377Z,50.30
2023-02-15T21:12:59.815Z,52.43
2023-02-15T21:15:26.629Z,46.90
2023-02-15T21:17:53.817Z,50.03
2023-02-15T21:20:21.319Z,54.70
2023-02-15T21:22:48.726Z,54.87
2023-02-15T21:25:36.961Z,46.33
2023-02-15T21:28:04.785Z,61.53
2023-02-15T21:30:32.043Z,49.33
2023-02-15T21:32:58.907Z,60.00
2023-02-15T21:35:26.042Z,55.37
2023-02-15T21:37:53.669Z,53.37
2023-02-15T21:40:31.931Z,51.33
2023-02-15T21:43:17.975Z,48.40
2023-02-15T21:46:03.518Z,52.50
2023-02-15T21:48:30.321Z,49.93
2023-02-15T21:51:15.711Z,47.33
2023-02-15T21:53:46.032Z,55.90
2023-02-15T21:56:16.517Z,46.50
2023-02-15T21:58:43.517Z,46.07
2023-02-15T22:01:24.791Z,65.07
2023-02-15T22:03:53.460Z,61.23
2023-02-15T22:06:20.733Z,62.33
2023-02-15T22:08:50.468Z,70.07
2023-02-15T22:11:20.804Z,54.10
2023-02-15T22:13:48.664Z,70.07
2023-02-15T22:16:24.631Z,70.20
2023-02-15T22:18:51.468Z,52.97
2023-02-15T22:21:19.191Z,76.17
2023-02-15T22:23:47.063Z,70.63
2023-02-15T22:26:20.939Z,92.90
2023-02-15T22:28:47.959Z,136.50
2023-02-15T22:31:18.604Z,52.23
2023-02-15T22:33:45.462Z,52.23
2023-02-15T22:36:30.387Z,47.13
2023-02-15T22:38:57.886Z,43.73
2023-02-15T22:41:28.260Z,51.70
2023-02-15T22:43:56.088Z,50.43
2023-02-15T22:46:24.610Z,61.53
2023-02-15T22:48:52.135Z,60.10
2023-02-15T22:51:22.965Z,62.00
2023-02-15T22:53:51.819Z,72.57
2023-02-15T22:56:22.426Z,55.97
2023-02-15T22:58:50.480Z,49.77
2023-02-15T23:01:29.686Z,50.13
2023-02-15T23:03:56.481Z,62.93
2023-02-15T23:06:23.244Z,50.10
2023-02-15T23:08:49.984Z,58.77
2023-02-15T23:11:17.405Z,53.23
2023-02-15T23:13:44.302Z,54.93
2023-02-15T23:16:15.339Z,45.47
2023-02-15T23:18:44.748Z,53.17
2023-02-15T23:21:33.850Z,57.10
2023-02-15T23:24:31.406Z,46.50
2023-02-15T23:27:18.113Z,48.73
2023-02-15T23:29:44.854Z,47.33
2023-02-15T23:32:15.427Z,49.33
2023-02-15T23:34:42.976Z,42.70
2023-02-15T23:37:14.313Z,35.60
2023-02-15T23:39:59.543Z,39.17
2023-02-15T23:42:30.446Z,37.30
2023-02-15T23:44:57.518Z,38.60
2023-02-15T23:47:47.309Z,35.73
2023-02-15T23:50:22.509Z,38.70
2023-02-15T23:52:53.291Z,54.37
2023-02-15T23:55:20.818Z,37.17
2023-02-15T23:57:47.938Z,39.53
